Time;durP1;ratioP1;P1;durP2;ratioP2;P2;SDS_P1;SDS_P2;PMS_P1;PMS_P2;Temp;Humidity;BMP_temperature;BMP_pressure;BME280_temperature;BME280_humidity;BME280_pressure;Samples;Min_cycle;Max_cycle;Signal;HPM_P1;HPM_P2
2023/05/23 00:01:21;;;;;;;0.27;0.27;;;14.10;99.90;;;;;;5045089;28;20032;-79
2023/05/23 00:03:48;;;;;;;0.43;0.30;;;14.00;99.90;;;;;;5064198;28;20032;-80
2023/05/23 00:06:20;;;;;;;0.57;0.57;;;14.00;99.90;;;;;;5064248;28;20044;-82
2023/05/23 00:08:45;;;;;;;0.35;0.35;;;14.10;99.90;;;;;;5062409;28;20035;-78
2023/05/23 00:11:12;;;;;;;0.65;0.52;;;14.00;99.90;;;;;;5062867;28;20036;-79
2023/05/23 00:13:38;;;;;;;0.38;0.38;;;14.00;99.90;;;;;;5053211;28;20032;-80
2023/05/23 00:16:08;;;;;;;0.20;0.20;;;13.90;99.90;;;;;;5064060;28;20108;-80
2023/05/23 00:18:34;;;;;;;2.35;0.82;;;13.90;99.90;;;;;;5050343;28;20032;-79
2023/05/23 00:21:01;;;;;;;0.47;0.35;;;14.00;99.90;;;;;;5055304;28;21208;-79
2023/05/23 00:23:28;;;;;;;0.20;0.20;;;13.90;99.90;;;;;;5057028;28;20025;-79
2023/05/23 00:25:54;;;;;;;0.35;0.35;;;13.90;99.90;;;;;;5059212;28;20086;-80
2023/05/23 00:28:21;;;;;;;0.88;0.88;;;14.00;99.90;;;;;;5060741;28;20035;-79
2023/05/23 00:30:47;;;;;;;0.35;0.35;;;13.80;99.90;;;;;;5055223;28;20051;-80
2023/05/23 00:33:15;;;;;;;0.30;0.30;;;13.90;99.90;;;;;;5056810;28;20691;-81
2023/05/23 00:35:41;;;;;;;0.35;0.35;;;13.90;99.90;;;;;;5062582;28;20032;-80
2023/05/23 00:38:07;;;;;;;0.30;0.30;;;13.90;99.90;;;;;;5063189;28;20017;-80
2023/05/23 00:40:33;;;;;;;0.20;0.20;;;13.90;99.90;;;;;;5063987;28;21599;-81
2023/05/23 00:43:00;;;;;;;0.32;0.32;;;13.90;99.90;;;;;;5058751;28;20020;-79
2023/05/23 00:45:26;;;;;;;0.32;0.32;;;14.00;99.90;;;;;;5059600;28;20178;-79
2023/05/23 00:47:52;;;;;;;0.70;0.60;;;13.90;99.90;;;;;;5037077;28;20025;-78
2023/05/23 00:50:18;;;;;;;0.10;0.10;;;13.80;99.90;;;;;;5059458;28;20290;-80
2023/05/23 00:52:46;;;;;;;6.32;1.48;;;13.90;99.90;;;;;;5059148;28;20028;-80
2023/05/23 00:55:13;;;;;;;0.28;0.28;;;14.00;99.90;;;;;;5060808;28;20039;-81
2023/05/23 00:57:43;;;;;;;13.23;1.13;;;13.90;99.90;;;;;;5050023;28;20090;-80
2023/05/23 01:00:10;;;;;;;0.30;0.30;;;13.90;99.90;;;;;;5053381;28;21236;-80
2023/05/23 01:02:42;;;;;;;1.20;1.10;;;13.90;99.90;;;;;;5048745;28;20025;-79
2023/05/23 01:05:09;;;;;;;0.40;0.40;;;13.80;99.90;;;;;;5053336;28;20060;-80
2023/05/23 01:07:34;;;;;;;0.70;0.70;;;13.80;99.90;;;;;;5051477;28;20112;-78
2023/05/23 01:10:00;;;;;;;0.38;0.38;;;13.90;99.90;;;;;;5059995;28;20462;-78
2023/05/23 01:12:45;;;;;;;0.87;0.83;;;13.90;99.90;;;;;;5049832;28;20029;-78
2023/05/23 01:15:20;;;;;;;1.75;0.75;;;13.90;99.90;;;;;;5045737;28;20032;-78
2023/05/23 01:18:08;;;;;;;0.22;0.22;;;13.80;99.90;;;;;;5032140;28;20496;-79
2023/05/23 01:20:40;;;;;;;0.90;0.90;;;13.70;99.90;;;;;;5059375;28;20819;-78
2023/05/23 01:23:42;;;;;;;2.60;1.02;;;13.60;99.90;;;;;;5054286;28;20136;-79
2023/05/23 01:26:33;;;;;;;0.08;0.08;;;13.70;99.90;;;;;;5036679;28;20475;-81
2023/05/23 01:29:16;;;;;;;0.10;0.10;;;13.70;99.90;;;;;;5053749;28;20372;-80
2023/05/23 01:31:44;;;;;;;0.35;0.35;;;13.80;99.90;;;;;;5058905;28;20028;-82
2023/05/23 01:34:12;;;;;;;0.30;0.30;;;13.80;99.90;;;;;;5061240;28;20759;-80
2023/05/23 01:36:42;;;;;;;0.20;0.20;;;13.80;99.90;;;;;;5057265;28;20479;-80
2023/05/23 01:39:09;;;;;;;0.00;0.00;;;13.70;99.90;;;;;;5060699;28;20021;-80
2023/05/23 01:41:34;;;;;;;0.25;0.25;;;13.60;99.90;;;;;;5056827;28;20440;-79
2023/05/23 01:44:01;;;;;;;0.10;0.10;;;13.60;99.90;;;;;;5057237;28;20039;-78
2023/05/23 01:46:28;;;;;;;0.10;0.10;;;13.50;99.90;;;;;;5051020;28;20059;-79
2023/05/23 01:48:55;;;;;;;0.10;0.10;;;13.50;99.90;;;;;;5033871;28;20028;-79
2023/05/23 01:51:22;;;;;;;0.25;0.25;;;13.50;99.90;;;;;;5036085;28;20079;-78
2023/05/23 01:53:51;;;;;;;0.00;0.00;;;13.50;99.90;;;;;;5055361;28;20059;-78
2023/05/23 01:56:17;;;;;;;0.88;0.88;;;13.50;99.90;;;;;;5045107;28;20048;-79
2023/05/23 01:58:42;;;;;;;1.03;0.90;;;13.50;99.90;;;;;;5052745;28;20512;-79
2023/05/23 02:01:09;;;;;;;0.20;0.20;;;13.60;99.90;;;;;;5053519;28;20032;-80
2023/05/23 02:03:35;;;;;;;0.28;0.28;;;13.60;99.90;;;;;;5053048;28;20082;-79
2023/05/23 02:06:00;;;;;;;0.30;0.30;;;13.60;99.90;;;;;;5057558;28;20040;-78
2023/05/23 02:08:26;;;;;;;0.23;0.23;;;13.50;99.90;;;;;;5060850;28;20082;-78
2023/05/23 02:10:52;;;;;;;0.60;0.60;;;13.50;99.90;;;;;;5060381;28;20047;-80
2023/05/23 02:13:17;;;;;;;0.37;0.37;;;13.50;99.90;;;;;;5062244;28;20033;-80
2023/05/23 02:15:43;;;;;;;0.10;0.10;;;13.50;99.90;;;;;;5034301;28;20059;-81
2023/05/23 02:18:09;;;;;;;0.10;0.10;;;13.40;99.90;;;;;;5060166;28;20113;-80
2023/05/23 02:20:34;;;;;;;0.83;0.83;;;13.40;99.90;;;;;;5049425;28;20041;-80
2023/05/23 02:23:00;;;;;;;0.47;0.20;;;13.40;99.90;;;;;;5056787;28;20040;-80
2023/05/23 02:25:26;;;;;;;0.20;0.20;;;13.40;99.90;;;;;;5057754;28;20043;-80
2023/05/23 02:27:51;;;;;;;0.00;0.00;;;13.30;99.90;;;;;;5051078;28;20064;-80
2023/05/23 02:30:17;;;;;;;0.50;0.50;;;13.30;99.90;;;;;;5054240;28;20450;-81
2023/05/23 02:32:43;;;;;;;0.30;0.30;;;13.30;99.90;;;;;;5062182;28;20070;-81
2023/05/23 02:35:10;;;;;;;0.10;0.10;;;13.20;99.90;;;;;;5058952;28;20791;-80
2023/05/23 02:37:36;;;;;;;0.10;0.10;;;13.10;99.90;;;;;;5053307;28;20028;-79
2023/05/23 02:40:02;;;;;;;1.00;1.00;;;13.10;99.90;;;;;;5037856;28;20054;-79
2023/05/23 02:42:28;;;;;;;0.00;0.00;;;13.10;99.90;;;;;;5059762;28;20028;-78
2023/05/23 02:44:53;;;;;;;0.10;0.10;;;13.10;99.90;;;;;;5062860;28;20043;-80
2023/05/23 02:47:19;;;;;;;0.10;0.10;;;13.10;99.90;;;;;;5059528;28;20457;-82
2023/05/23 02:49:45;;;;;;;0.10;0.10;;;13.10;99.90;;;;;;5043070;28;20041;-79
2023/05/23 02:52:11;;;;;;;0.27;0.07;;;13.10;99.90;;;;;;5045740;28;20057;-80
2023/05/23 02:54:36;;;;;;;0.30;0.30;;;13.10;99.90;;;;;;5056157;28;20542;-79
2023/05/23 02:57:03;;;;;;;0.10;0.10;;;13.00;99.90;;;;;;5060887;28;20098;-83
2023/05/23 02:59:28;;;;;;;0.20;0.20;;;12.90;99.90;;;;;;5053645;28;20028;-83
2023/05/23 03:01:54;;;;;;;1.10;1.02;;;12.80;99.90;;;;;;5056297;28;20048;-81
2023/05/23 03:04:20;;;;;;;1.30;1.20;;;12.70;99.90;;;;;;5061441;28;20234;-79
2023/05/23 03:06:46;;;;;;;0.27;0.27;;;12.90;99.90;;;;;;5066747;28;20534;-78
2023/05/23 03:09:13;;;;;;;0.20;0.20;;;13.00;99.90;;;;;;5059383;28;20028;-81
2023/05/23 03:11:39;;;;;;;0.57;0.57;;;13.20;99.90;;;;;;5045170;28;20060;-84
2023/05/23 03:14:05;;;;;;;0.00;0.00;;;13.10;99.90;;;;;;5043961;28;20107;-79
2023/05/23 03:16:30;;;;;;;0.20;0.20;;;13.20;99.90;;;;;;5054292;28;20033;-78
2023/05/23 03:18:56;;;;;;;0.53;0.53;;;13.30;99.90;;;;;;5060909;28;20902;-78
2023/05/23 03:21:22;;;;;;;0.30;0.30;;;13.30;99.90;;;;;;5061393;28;20033;-80
2023/05/23 03:23:48;;;;;;;0.73;0.73;;;13.40;99.90;;;;;;5061713;28;20029;-78
2023/05/23 03:26:15;;;;;;;0.10;0.10;;;13.40;99.90;;;;;;5054874;28;20027;-77
2023/05/23 03:28:40;;;;;;;0.10;0.10;;;13.40;99.90;;;;;;5054617;28;20090;-80
2023/05/23 03:31:06;;;;;;;0.20;0.20;;;13.50;99.90;;;;;;5063282;28;20036;-78
2023/05/23 03:33:32;;;;;;;0.43;0.43;;;13.50;99.90;;;;;;5059858;28;20109;-79
2023/05/23 03:35:57;;;;;;;0.30;0.30;;;13.40;99.90;;;;;;5065232;28;20116;-81
2023/05/23 03:38:23;;;;;;;0.53;0.47;;;13.50;99.90;;;;;;5059429;28;20056;-82
2023/05/23 03:40:49;;;;;;;0.10;0.10;;;13.50;99.90;;;;;;5061900;28;20497;-78
2023/05/23 03:43:15;;;;;;;0.10;0.10;;;13.40;99.90;;;;;;5060948;28;20028;-82
2023/05/23 03:45:40;;;;;;;0.27;0.27;;;13.30;99.90;;;;;;5054473;28;20754;-77
2023/05/23 03:48:06;;;;;;;13.37;1.63;;;13.30;99.90;;;;;;5042371;28;20021;-79
2023/05/23 03:50:32;;;;;;;0.20;0.20;;;13.30;99.90;;;;;;5061228;28;20507;-80
2023/05/23 03:52:57;;;;;;;0.55;0.55;;;13.30;99.90;;;;;;5056370;28;20032;-78
2023/05/23 03:55:24;;;;;;;0.10;0.10;;;13.30;99.90;;;;;;5055665;28;20404;-81
2023/05/23 03:57:53;;;;;;;0.82;0.68;;;13.10;99.90;;;;;;5055988;28;20136;-78
2023/05/23 04:00:19;;;;;;;0.15;0.15;;;13.00;99.90;;;;;;5032370;28;20373;-80
2023/05/23 04:02:45;;;;;;;0.80;0.80;;;13.20;99.90;;;;;;5055657;28;20029;-79
2023/05/23 04:05:12;;;;;;;0.00;0.00;;;13.10;99.90;;;;;;5061180;28;20086;-78
2023/05/23 04:07:38;;;;;;;0.60;0.60;;;13.00;99.90;;;;;;5056306;28;20033;-82
2023/05/23 04:10:04;;;;;;;0.40;0.40;;;13.00;99.90;;;;;;5055171;28;20040;-81
2023/05/23 04:12:30;;;;;;;0.68;0.68;;;13.00;99.90;;;;;;5063463;28;20082;-80
2023/05/23 04:14:59;;;;;;;0.53;0.37;;;12.90;99.90;;;;;;5057820;28;20036;-80
2023/05/23 04:17:24;;;;;;;0.40;0.40;;;13.10;99.90;;;;;;5062768;28;20025;-79
2023/05/23 04:19:50;;;;;;;0.80;0.80;;;13.00;99.90;;;;;;5059746;28;20101;-80
2023/05/23 04:22:16;;;;;;;0.10;0.10;;;13.00;99.90;;;;;;5062156;28;20025;-78
2023/05/23 04:24:42;;;;;;;0.53;0.53;;;13.10;99.90;;;;;;5059098;28;20036;-81
2023/05/23 04:27:08;;;;;;;0.10;0.10;;;13.00;99.90;;;;;;5043303;28;20029;-79
2023/05/23 04:29:34;;;;;;;0.27;0.27;;;12.90;99.90;;;;;;5060730;28;20403;-81
2023/05/23 04:32:01;;;;;;;0.82;0.82;;;12.90;99.90;;;;;;5063340;28;21039;-80
2023/05/23 04:34:27;;;;;;;0.55;0.55;;;12.90;99.90;;;;;;5059337;28;20029;-79
2023/05/23 04:36:56;;;;;;;0.20;0.20;;;12.80;99.90;;;;;;5058944;28;20028;-81
2023/05/23 04:39:22;;;;;;;0.65;0.65;;;12.90;99.90;;;;;;5048366;28;20033;-79
2023/05/23 04:41:48;;;;;;;0.32;0.32;;;12.90;99.90;;;;;;5063676;28;20039;-79
2023/05/23 04:44:14;;;;;;;0.50;0.47;;;13.00;99.90;;;;;;5057490;28;20021;-78
2023/05/23 04:46:44;;;;;;;0.43;0.43;;;13.00;99.90;;;;;;5059870;28;20029;-79
2023/05/23 04:49:10;;;;;;;0.65;0.65;;;13.00;99.90;;;;;;5048395;28;20028;-79
2023/05/23 04:51:35;;;;;;;0.65;0.65;;;13.00;99.90;;;;;;5049249;28;20055;-79
2023/05/23 04:54:01;;;;;;;0.13;0.13;;;13.10;99.90;;;;;;5052514;28;20029;-80
2023/05/23 04:56:27;;;;;;;0.10;0.10;;;13.20;99.90;;;;;;5053425;28;20028;-79
2023/05/23 04:58:53;;;;;;;0.63;0.63;;;13.40;99.90;;;;;;5058633;28;20115;-81
2023/05/23 05:01:19;;;;;;;0.20;0.20;;;13.60;99.90;;;;;;5050157;28;20040;-78
2023/05/23 05:03:46;;;;;;;0.10;0.10;;;13.70;99.90;;;;;;5048240;28;20039;-81
2023/05/23 05:06:12;;;;;;;0.22;0.22;;;14.00;99.90;;;;;;5057536;28;20025;-77
2023/05/23 05:08:39;;;;;;;0.43;0.43;;;14.00;99.90;;;;;;5046979;28;20047;-79
2023/05/23 05:11:05;;;;;;;0.90;0.88;;;14.10;99.90;;;;;;5051151;28;20131;-79
2023/05/23 05:13:30;;;;;;;0.33;0.33;;;14.20;99.90;;;;;;5055819;28;20056;-80
2023/05/23 05:15:57;;;;;;;0.60;0.50;;;14.20;99.90;;;;;;5052194;28;20036;-80
2023/05/23 05:18:24;;;;;;;0.88;0.40;;;14.40;99.90;;;;;;5041188;28;20111;-80
2023/05/23 05:20:50;;;;;;;0.43;0.43;;;14.80;99.90;;;;;;5046887;28;20028;-81
2023/05/23 05:23:16;;;;;;;0.13;0.13;;;15.90;99.90;;;;;;5056082;28;20698;-81
2023/05/23 05:25:41;;;;;;;0.43;0.43;;;15.10;99.90;;;;;;5055955;28;20578;-80
2023/05/23 05:28:07;;;;;;;0.20;0.20;;;14.80;99.90;;;;;;5043016;28;20241;-81
2023/05/23 05:30:37;;;;;;;0.10;0.10;;;14.90;99.90;;;;;;5043176;28;20096;-80
2023/05/23 05:33:03;;;;;;;0.52;0.52;;;14.90;99.90;;;;;;5062145;28;20028;-80
2023/05/23 05:35:37;;;;;;;0.28;0.28;;;15.10;99.90;;;;;;5047316;28;20025;-80
2023/05/23 05:38:03;;;;;;;0.22;0.22;;;15.20;99.90;;;;;;5042886;28;20036;-81
2023/05/23 05:40:32;;;;;;;0.20;0.20;;;15.20;99.90;;;;;;5059354;28;20099;-81
2023/05/23 05:42:57;;;;;;;0.20;0.20;;;15.30;99.90;;;;;;5053299;28;20064;-80
2023/05/23 05:45:23;;;;;;;0.23;0.23;;;15.30;99.90;;;;;;5052764;28;20025;-82
2023/05/23 05:47:49;;;;;;;0.20;0.20;;;15.20;99.90;;;;;;5053181;28;20021;-80
2023/05/23 05:50:14;;;;;;;0.23;0.23;;;15.20;99.90;;;;;;5052725;28;20041;-80
2023/05/23 05:52:41;;;;;;;0.27;0.27;;;15.40;99.90;;;;;;5043949;28;20025;-80
2023/05/23 05:55:11;;;;;;;0.32;0.32;;;15.50;99.90;;;;;;5055435;28;20036;-79
2023/05/23 05:57:38;;;;;;;0.30;0.30;;;16.00;99.90;;;;;;5045393;28;20047;-81
2023/05/23 06:00:12;;;;;;;0.00;0.00;;;18.00;99.90;;;;;;5051220;28;20471;-81
2023/05/23 06:02:46;;;;;;;0.98;0.73;;;19.50;99.90;;;;;;5050985;28;20661;-81
2023/05/23 06:05:13;;;;;;;0.45;0.45;;;18.10;99.90;;;;;;5053636;28;20024;-82
2023/05/23 06:07:39;;;;;;;0.10;0.10;;;19.10;99.90;;;;;;5046953;28;20025;-82
2023/05/23 06:10:06;;;;;;;1.13;0.75;;;21.00;96.20;;;;;;5056828;28;20040;-80
2023/05/23 06:12:32;;;;;;;0.32;0.25;;;21.70;88.60;;;;;;5043056;28;20037;-81
2023/05/23 06:14:58;;;;;;;0.57;0.57;;;19.70;91.60;;;;;;5044329;28;20032;-80
2023/05/23 06:17:24;;;;;;;0.22;0.22;;;20.50;90.00;;;;;;5045814;28;20079;-82
2023/05/23 06:19:50;;;;;;;0.15;0.15;;;18.70;92.90;;;;;;5042799;28;20037;-83
2023/05/23 06:22:16;;;;;;;0.73;0.70;;;18.70;93.20;;;;;;5043386;28;20059;-82
2023/05/23 06:24:41;;;;;;;0.30;0.30;;;18.00;94.70;;;;;;5045162;28;20067;-81
2023/05/23 06:27:07;;;;;;;0.10;0.10;;;17.50;95.00;;;;;;5043802;28;20021;-82
2023/05/23 06:29:34;;;;;;;0.20;0.20;;;17.60;95.20;;;;;;5042543;28;20020;-83
2023/05/23 06:32:00;;;;;;;1.25;0.70;;;18.10;93.40;;;;;;5044929;28;20024;-83
2023/05/23 06:34:26;;;;;;;0.07;0.07;;;21.10;85.90;;;;;;5060511;28;20028;-83
2023/05/23 06:36:51;;;;;;;0.20;0.20;;;22.60;79.50;;;;;;5062328;28;20066;-84
2023/05/23 06:39:17;;;;;;;0.60;0.60;;;22.70;78.50;;;;;;5050747;28;20447;-84
2023/05/23 06:41:43;;;;;;;1.07;0.97;;;23.10;78.40;;;;;;5061666;28;20840;-83
2023/05/23 06:44:08;;;;;;;0.10;0.10;;;22.90;76.80;;;;;;5057321;28;20480;-83
2023/05/23 06:46:34;;;;;;;0.20;0.20;;;22.70;75.70;;;;;;5045761;28;20029;-83
2023/05/23 06:49:00;;;;;;;0.13;0.13;;;23.10;73.30;;;;;;5049502;28;20028;-83
2023/05/23 06:51:25;;;;;;;0.68;0.68;;;23.70;71.50;;;;;;5052193;28;20061;-83
2023/05/23 06:53:51;;;;;;;0.35;0.35;;;24.00;71.10;;;;;;5048705;28;20036;-83
2023/05/23 06:56:17;;;;;;;0.10;0.10;;;24.20;69.40;;;;;;5055706;28;20035;-83
2023/05/23 06:58:42;;;;;;;0.38;0.38;;;23.90;68.50;;;;;;5061272;28;20024;-83
2023/05/23 07:01:09;;;;;;;0.50;0.50;;;24.20;68.40;;;;;;5053531;28;20175;-83
2023/05/23 07:03:37;;;;;;;0.20;0.20;;;24.50;67.70;;;;;;5055390;28;20029;-83
2023/05/23 07:06:03;;;;;;;0.32;0.32;;;24.90;67.00;;;;;;5061937;28;20032;-84
2023/05/23 07:08:29;;;;;;;0.15;0.15;;;24.70;62.90;;;;;;5058229;28;20103;-83
2023/05/23 07:10:54;;;;;;;0.00;0.00;;;24.80;66.30;;;;;;5060152;28;20469;-83
2023/05/23 07:13:20;;;;;;;0.30;0.30;;;25.20;64.10;;;;;;5023841;28;20665;-83
2023/05/23 07:15:46;;;;;;;0.10;0.10;;;25.50;63.30;;;;;;5050757;28;20031;-84
2023/05/23 07:18:11;;;;;;;0.00;0.00;;;25.30;63.80;;;;;;5061161;28;20675;-84
2023/05/23 07:20:37;;;;;;;0.20;0.20;;;26.20;62.70;;;;;;5056930;28;20481;-84
2023/05/23 07:23:03;;;;;;;0.13;0.13;;;25.80;62.40;;;;;;5061491;28;20119;-84
2023/05/23 07:25:28;;;;;;;0.00;0.00;;;25.90;61.50;;;;;;5059602;28;20036;-84
2023/05/23 07:27:54;;;;;;;0.30;0.30;;;26.20;62.40;;;;;;5055988;28;20028;-84
2023/05/23 07:30:21;;;;;;;0.00;0.00;;;25.50;61.20;;;;;;5059537;28;20913;-84
2023/05/23 07:32:47;;;;;;;0.00;0.00;;;26.50;60.60;;;;;;5034928;28;20075;-84
2023/05/23 07:35:14;;;;;;;0.13;0.13;;;26.90;58.80;;;;;;5058611;28;20100;-84
2023/05/23 07:37:40;;;;;;;1.48;0.70;;;26.70;60.40;;;;;;5064131;28;20032;-84
2023/05/23 07:40:08;;;;;;;0.00;0.00;;;26.70;59.30;;;;;;5061213;28;20080;-84
2023/05/23 07:42:33;;;;;;;0.00;0.00;;;26.70;60.10;;;;;;5045168;28;20315;-84
2023/05/23 07:44:59;;;;;;;0.35;0.35;;;27.30;57.10;;;;;;5060414;28;20777;-82
2023/05/23 07:47:26;;;;;;;;;;;26.90;58.80;;;;;;5062544;28;20074;-84
2023/05/23 07:49:52;;;;;;;0.30;0.30;;;27.40;60.00;;;;;;5059360;28;19912;-84
2023/05/23 07:52:18;;;;;;;;;;;27.80;56.70;;;;;;5062569;28;20051;-84
2023/05/23 07:54:43;;;;;;;0.20;0.20;;;28.30;58.40;;;;;;5055419;28;19913;-84
2023/05/23 07:57:09;;;;;;;;;;;28.30;55.10;;;;;;5061651;28;21026;-84
2023/05/23 07:59:35;;;;;;;0.20;0.20;;;29.30;56.10;;;;;;5057365;28;19909;-84
2023/05/23 08:02:01;;;;;;;;;;;29.10;53.10;;;;;;5064899;28;20103;-84
2023/05/23 08:04:27;;;;;;;0.20;0.20;;;29.20;55.70;;;;;;5055794;28;19955;-84
2023/05/23 08:06:54;;;;;;;0.00;0.00;;;28.90;56.00;;;;;;5059505;28;20132;-85
2023/05/23 08:09:22;;;;;;;0.05;0.05;;;29.40;55.10;;;;;;5048206;28;20084;-84
2023/05/23 08:11:47;;;;;;;0.15;0.15;;;29.90;50.60;;;;;;5065051;28;20436;-84
2023/05/23 08:14:13;;;;;;;0.28;0.28;;;30.90;53.30;;;;;;5053310;28;20492;-84
2023/05/23 08:16:39;;;;;;;0.35;0.35;;;31.50;52.30;;;;;;5033662;28;20032;-84
2023/05/23 08:19:05;;;;;;;0.10;0.10;;;31.10;51.50;;;;;;5051828;28;20540;-84
2023/05/23 08:21:31;;;;;;;0.45;0.35;;;30.60;51.30;;;;;;5056883;28;20036;-84
2023/05/23 08:23:57;;;;;;;0.60;0.60;;;31.30;50.60;;;;;;5056522;28;20464;-84
2023/05/23 08:26:22;;;;;;;0.10;0.10;;;32.10;48.80;;;;;;5064500;28;20107;-84
2023/05/23 08:28:48;;;;;;;0.00;0.00;;;30.50;52.60;;;;;;5041233;28;20029;-84
2023/05/23 08:31:14;;;;;;;0.00;0.00;;;31.80;49.00;;;;;;5064455;28;20127;-84
2023/05/23 08:33:40;;;;;;;0.47;0.47;;;32.10;47.90;;;;;;5059777;28;20152;-84
2023/05/23 08:36:05;;;;;;;0.20;0.20;;;32.30;47.70;;;;;;5062432;28;20025;-84
2023/05/23 08:38:31;;;;;;;0.63;0.57;;;32.90;47.00;;;;;;5042643;28;20074;-84
2023/05/23 08:41:00;;;;;;;0.10;0.10;;;33.20;46.20;;;;;;5062024;28;20036;-84
2023/05/23 08:43:25;;;;;;;0.25;0.25;;;32.90;46.80;;;;;;5061965;28;20042;-84
2023/05/23 08:45:52;;;;;;;0.20;0.20;;;32.40;47.10;;;;;;5061505;28;20101;-85
2023/05/23 08:48:19;;;;;;;0.38;0.35;;;34.70;47.30;;;;;;5058929;28;20033;-84
2023/05/23 08:50:47;;;;;;;0.10;0.10;;;34.60;44.00;;;;;;5058924;28;20053;-85
2023/05/23 08:53:19;;;;;;;0.00;0.00;;;32.60;45.60;;;;;;5060405;28;20062;-85
2023/05/23 08:55:50;;;;;;;0.08;0.08;;;33.60;43.90;;;;;;5053545;28;20480;-85
2023/05/23 08:58:19;;;;;;;0.13;0.13;;;34.70;42.40;;;;;;5057237;28;20400;-86
2023/05/23 09:00:46;;;;;;;0.43;0.43;;;35.60;43.40;;;;;;5059211;28;20024;-85
2023/05/23 09:03:13;;;;;;;0.00;0.00;;;36.10;44.00;;;;;;5059055;28;20036;-85
2023/05/23 09:05:39;;;;;;;1.85;0.55;;;35.30;42.30;;;;;;5056291;28;20024;-85
2023/05/23 09:08:04;;;;;;;0.00;0.00;;;35.50;42.10;;;;;;5058283;28;20024;-85
2023/05/23 09:10:30;;;;;;;0.00;0.00;;;34.10;42.40;;;;;;5062933;28;20044;-85
2023/05/23 09:12:57;;;;;;;0.00;0.00;;;32.50;46.10;;;;;;5063815;28;20031;-85
2023/05/23 09:15:23;;;;;;;0.00;0.00;;;34.00;44.80;;;;;;5043945;28;20029;-85
2023/05/23 09:17:49;;;;;;;0.10;0.10;;;35.10;43.20;;;;;;5045717;28;20850;-85
2023/05/23 09:20:16;;;;;;;0.00;0.00;;;35.10;42.30;;;;;;5063759;28;20056;-86
2023/05/23 09:22:46;;;;;;;0.20;0.20;;;35.30;42.80;;;;;;5063899;28;20028;-86
2023/05/23 09:25:13;;;;;;;0.25;0.25;;;35.20;42.00;;;;;;5060138;28;20032;-85
2023/05/23 09:27:38;;;;;;;0.22;0.22;;;36.50;42.60;;;;;;5057580;28;20052;-84
2023/05/23 09:30:09;;;;;;;0.82;0.82;;;36.70;42.80;;;;;;5059224;28;20520;-85
2023/05/23 09:32:34;;;;;;;0.22;0.22;;;36.40;39.70;;;;;;5062822;28;20036;-85
2023/05/23 09:35:05;;;;;;;0.00;0.00;;;37.00;41.80;;;;;;5056004;28;20106;-85
2023/05/23 09:37:33;;;;;;;0.38;0.38;;;37.40;41.00;;;;;;5061277;28;20024;-85
2023/05/23 09:40:00;;;;;;;1.30;0.45;;;37.00;40.50;;;;;;5059815;28;20055;-85
2023/05/23 09:42:31;;;;;;;0.68;0.68;;;36.80;39.80;;;;;;5050443;28;21042;-84
2023/05/23 09:44:58;;;;;;;0.43;0.40;;;36.70;41.00;;;;;;5060698;28;20491;-85
2023/05/23 09:47:23;;;;;;;0.10;0.10;;;36.70;40.50;;;;;;5059913;28;20115;-85
2023/05/23 09:49:50;;;;;;;0.08;0.08;;;35.90;41.90;;;;;;5055759;28;20037;-85
2023/05/23 09:52:16;;;;;;;2.03;0.55;;;36.20;41.70;;;;;;5059290;28;20095;-84
2023/05/23 09:54:42;;;;;;;0.20;0.20;;;35.70;44.70;;;;;;5052136;28;20751;-84
2023/05/23 09:57:12;;;;;;;1.35;1.10;;;34.90;41.40;;;;;;5058394;28;20028;-85
2023/05/23 09:59:40;;;;;;;0.15;0.15;;;35.00;43.30;;;;;;5054506;28;20031;-85
2023/05/23 10:02:15;;;;;;;1.00;0.32;;;36.80;39.50;;;;;;5060152;28;20787;-85
2023/05/23 10:04:42;;;;;;;0.30;0.30;;;36.50;41.50;;;;;;5055539;28;20024;-85
2023/05/23 10:07:16;;;;;;;0.45;0.45;;;36.90;42.60;;;;;;5055543;28;20033;-85
2023/05/23 10:09:47;;;;;;;0.22;0.22;;;36.90;40.70;;;;;;5058809;28;20039;-85
2023/05/23 10:12:31;;;;;;;0.63;0.63;;;36.00;41.50;;;;;;5058772;28;20037;-85
2023/05/23 10:15:00;;;;;;;0.63;0.63;;;35.40;40.90;;;;;;5062358;28;20638;-85
2023/05/23 10:17:26;;;;;;;0.13;0.13;;;34.60;43.20;;;;;;5049690;28;20120;-84
2023/05/23 10:20:07;;;;;;;0.68;0.68;;;35.30;43.80;;;;;;5061836;28;20016;-85
2023/05/23 10:22:35;;;;;;;0.52;0.52;;;35.30;44.40;;;;;;5061683;28;20029;-85
2023/05/23 10:25:04;;;;;;;0.50;0.50;;;34.20;42.30;;;;;;5061007;28;20048;-85
2023/05/23 10:27:33;;;;;;;0.40;0.40;;;35.40;43.50;;;;;;5062617;28;20032;-84
2023/05/23 10:29:59;;;;;;;0.52;0.52;;;36.50;42.50;;;;;;5061897;28;20020;-85
2023/05/23 10:32:27;;;;;;;1.17;0.73;;;36.60;42.00;;;;;;5056698;28;20029;-85
2023/05/23 10:35:26;;;;;;;0.28;0.28;;;36.70;41.70;;;;;;5038646;28;20021;-85
2023/05/23 10:38:03;;;;;;;0.25;0.25;;;34.90;42.60;;;;;;5055538;28;20782;-85
2023/05/23 10:40:47;;;;;;;2.42;1.13;;;33.20;44.40;;;;;;5060850;28;20499;-85
2023/05/23 10:43:33;;;;;;;0.47;0.47;;;32.70;49.70;;;;;;5057319;28;20021;-84
2023/05/23 10:45:59;;;;;;;0.45;0.45;;;30.70;55.30;;;;;;5053974;28;20032;-85
2023/05/23 10:48:28;;;;;;;0.50;0.50;;;29.60;58.60;;;;;;5057876;28;20024;-85
2023/05/23 10:51:10;;;;;;;2.72;0.98;;;29.80;59.40;;;;;;5058768;28;20083;-85
2023/05/23 10:53:41;;;;;;;0.35;0.35;;;29.10;61.40;;;;;;5058418;28;20033;-85
2023/05/23 10:56:09;;;;;;;0.30;0.30;;;29.10;57.80;;;;;;5055218;28;20049;-85
2023/05/23 10:58:38;;;;;;;0.15;0.15;;;28.60;60.20;;;;;;5047753;28;20025;-85
2023/05/23 11:01:15;;;;;;;0.80;0.80;;;28.30;60.80;;;;;;5053311;28;20029;-84
2023/05/23 11:03:46;;;;;;;0.50;0.50;;;28.60;60.60;;;;;;5059239;28;20058;-85
2023/05/23 11:06:42;;;;;;;0.25;0.25;;;29.10;59.70;;;;;;5057608;28;20024;-84
2023/05/23 11:09:12;;;;;;;1.10;1.10;;;28.60;55.50;;;;;;5038067;28;20024;-85
2023/05/23 11:11:56;;;;;;;0.40;0.40;;;27.60;55.40;;;;;;5053436;28;20053;-85
2023/05/23 11:14:32;;;;;;;0.17;0.17;;;27.50;59.70;;;;;;5058727;28;20058;-84
2023/05/23 11:17:19;;;;;;;1.52;1.42;;;28.40;60.40;;;;;;5051658;28;20027;-86
2023/05/23 11:20:07;;;;;;;0.13;0.13;;;28.40;60.60;;;;;;5041837;28;20119;-84
2023/05/23 11:22:34;;;;;;;0.10;0.10;;;28.30;58.60;;;;;;5029898;28;20420;-84
2023/05/23 11:25:00;;;;;;;0.35;0.35;;;28.20;54.40;;;;;;5056149;28;20024;-84
2023/05/23 11:27:39;;;;;;;0.50;0.50;;;28.80;56.50;;;;;;5059401;28;20074;-84
2023/05/23 11:30:12;;;;;;;0.50;0.50;;;29.20;57.00;;;;;;5043246;28;20036;-84
2023/05/23 11:32:38;;;;;;;3.67;1.38;;;29.70;57.10;;;;;;5064646;28;20016;-85
2023/05/23 11:35:08;;;;;;;0.52;0.52;;;29.10;55.90;;;;;;5059058;28;20087;-84
2023/05/23 11:37:34;;;;;;;0.45;0.45;;;28.90;59.20;;;;;;5064199;28;20790;-85
2023/05/23 11:40:26;;;;;;;0.08;0.08;;;28.30;57.70;;;;;;5057055;28;20818;-85
2023/05/23 11:42:55;;;;;;;0.85;0.43;;;28.30;55.50;;;;;;5059048;28;20025;-85
2023/05/23 11:45:22;;;;;;;0.40;0.40;;;28.10;55.10;;;;;;5044969;28;20033;-85
2023/05/23 11:47:48;;;;;;;0.00;0.00;;;28.10;58.00;;;;;;5055252;28;20020;-84
2023/05/23 11:50:15;;;;;;;0.55;0.55;;;28.10;60.10;;;;;;5056517;28;20374;-85
2023/05/23 11:52:41;;;;;;;0.30;0.30;;;27.90;61.20;;;;;;5061137;28;20020;-85
2023/05/23 11:55:08;;;;;;;0.32;0.32;;;27.90;62.50;;;;;;5058284;28;20032;-86
2023/05/23 11:57:38;;;;;;;0.35;0.32;;;27.80;62.50;;;;;;5043931;28;20155;-85
2023/05/23 12:00:07;;;;;;;0.40;0.40;;;27.50;64.50;;;;;;5061365;28;20043;-85
2023/05/23 12:02:40;;;;;;;0.52;0.52;;;27.10;65.50;;;;;;5060649;28;20048;-85
2023/05/23 12:05:12;;;;;;;0.32;0.32;;;26.60;66.40;;;;;;5048501;28;20025;-85
2023/05/23 12:07:41;;;;;;;0.77;0.75;;;26.30;65.20;;;;;;5056164;28;20782;-85
2023/05/23 12:10:08;;;;;;;0.28;0.10;;;26.40;66.40;;;;;;5061610;28;21127;-84
2023/05/23 12:12:34;;;;;;;0.65;0.65;;;26.40;66.40;;;;;;5054890;28;20025;-85
2023/05/23 12:15:00;;;;;;;0.47;0.47;;;26.60;66.50;;;;;;5058963;28;20036;-84
2023/05/23 12:17:26;;;;;;;1.03;1.03;;;26.70;65.60;;;;;;5053218;28;20028;-84
2023/05/23 12:19:52;;;;;;;2.58;1.17;;;26.70;65.10;;;;;;5058146;28;20358;-84
2023/05/23 12:22:22;;;;;;;;;;;25.90;66.10;;;;;;5035362;28;20468;-84
2023/05/23 12:24:48;;;;;;;0.65;0.65;;;25.80;67.50;;;;;;5057061;28;20089;-85
2023/05/23 12:27:16;;;;;;;0.93;0.93;;;25.80;66.60;;;;;;5057559;28;20546;-85
2023/05/23 12:29:48;;;;;;;0.28;0.28;;;26.10;66.70;;;;;;5063467;28;20036;-85
2023/05/23 12:32:14;;;;;;;0.45;0.45;;;26.60;64.10;;;;;;5063624;28;20033;-86
2023/05/23 12:34:41;;;;;;;;;;;26.80;63.70;;;;;;5058672;28;20499;-86
2023/05/23 12:37:07;;;;;;;0.45;0.45;;;26.40;64.80;;;;;;5058555;28;19939;-85
2023/05/23 12:39:35;;;;;;;0.77;0.50;;;26.10;68.50;;;;;;5057375;28;20448;-86
2023/05/23 12:42:10;;;;;;;0.43;0.43;;;27.00;69.50;;;;;;5062675;28;20619;-85
2023/05/23 12:44:35;;;;;;;0.43;0.40;;;26.70;66.80;;;;;;5057438;28;20426;-85
2023/05/23 12:47:04;;;;;;;0.47;0.47;;;27.10;68.50;;;;;;5060835;28;20032;-85
2023/05/23 12:49:30;;;;;;;0.50;0.50;;;26.40;67.60;;;;;;5036246;28;20032;-85
2023/05/23 12:51:56;;;;;;;2.35;0.63;;;26.00;69.20;;;;;;5059471;28;20052;-85